sensor_id;sensor_type;location;lat;lon;timestamp;P1;durP1;ratioP1;P2;durP2;ratioP2
31514;SDS011;40526;52.088;17.020;2023-11-21T00:01:53;87.03;;;36.08;;
31514;SDS011;40526;52.088;17.020;2023-11-21T00:06:57;104.85;;;40.88;;
31514;SDS011;40526;52.088;17.020;2023-11-21T00:11:59;117.63;;;41.33;;
31514;SDS011;40526;52.088;17.020;2023-11-21T00:17:04;94.78;;;37.38;;
31514;SDS011;40526;52.088;17.020;2023-11-21T00:22:07;107.03;;;36.33;;
31514;SDS011;40526;52.088;17.020;2023-11-21T00:27:09;118.85;;;36.38;;
31514;SDS011;40526;52.088;17.020;2023-11-21T00:32:14;92.25;;;34.22;;
31514;SDS011;40526;52.088;17.020;2023-11-21T00:37:16;88.45;;;31.67;;
31514;SDS011;40526;52.088;17.020;2023-11-21T00:42:18;115.55;;;34.63;;
31514;SDS011;40526;52.088;17.020;2023-11-21T00:47:23;107.63;;;36.92;;
31514;SDS011;40526;52.088;17.020;2023-11-21T00:52:25;131.35;;;39.15;;
31514;SDS011;40526;52.088;17.020;2023-11-21T00:57:28;137.52;;;40.15;;
31514;SDS011;40526;52.088;17.020;2023-11-21T01:02:32;128.00;;;36.92;;
31514;SDS011;40526;52.088;17.020;2023-11-21T01:07:36;126.88;;;38.20;;
31514;SDS011;40526;52.088;17.020;2023-11-21T01:12:39;165.23;;;39.97;;
31514;SDS011;40526;52.088;17.020;2023-11-21T01:17:44;166.13;;;41.22;;
31514;SDS011;40526;52.088;17.020;2023-11-21T01:22:47;136.60;;;36.53;;
31514;SDS011;40526;52.088;17.020;2023-11-21T01:27:50;108.97;;;33.67;;
31514;SDS011;40526;52.088;17.020;2023-11-21T01:32:55;87.53;;;30.63;;
31514;SDS011;40526;52.088;17.020;2023-11-21T01:38:01;102.95;;;31.13;;
31514;SDS011;40526;52.088;17.020;2023-11-21T01:43:04;97.45;;;27.95;;
31514;SDS011;40526;52.088;17.020;2023-11-21T01:48:10;99.28;;;31.77;;
31514;SDS011;40526;52.088;17.020;2023-11-21T01:53:15;103.30;;;29.45;;
31514;SDS011;40526;52.088;17.020;2023-11-21T01:58:18;94.68;;;31.15;;
31514;SDS011;40526;52.088;17.020;2023-11-21T02:03:25;104.20;;;33.45;;
31514;SDS011;40526;52.088;17.020;2023-11-21T02:08:28;99.40;;;30.27;;
31514;SDS011;40526;52.088;17.020;2023-11-21T02:13:31;104.13;;;32.70;;
31514;SDS011;40526;52.088;17.020;2023-11-21T02:18:37;95.63;;;30.92;;
31514;SDS011;40526;52.088;17.020;2023-11-21T02:23:42;131.15;;;33.97;;
31514;SDS011;40526;52.088;17.020;2023-11-21T02:28:44;139.80;;;37.53;;
31514;SDS011;40526;52.088;17.020;2023-11-21T02:33:48;136.65;;;34.45;;
31514;SDS011;40526;52.088;17.020;2023-11-21T02:38:55;143.23;;;39.22;;
31514;SDS011;40526;52.088;17.020;2023-11-21T02:43:58;121.93;;;35.22;;
31514;SDS011;40526;52.088;17.020;2023-11-21T02:49:01;138.23;;;36.60;;
31514;SDS011;40526;52.088;17.020;2023-11-21T02:54:08;129.85;;;34.72;;
31514;SDS011;40526;52.088;17.020;2023-11-21T02:59:11;109.43;;;32.53;;
31514;SDS011;40526;52.088;17.020;2023-11-21T03:04:15;120.72;;;35.13;;
31514;SDS011;40526;52.088;17.020;2023-11-21T03:09:19;135.68;;;35.67;;
31514;SDS011;40526;52.088;17.020;2023-11-21T03:14:22;122.20;;;33.97;;
31514;SDS011;40526;52.088;17.020;2023-11-21T03:19:24;115.72;;;34.47;;
31514;SDS011;40526;52.088;17.020;2023-11-21T03:24:30;125.78;;;34.75;;
31514;SDS011;40526;52.088;17.020;2023-11-21T03:29:34;113.75;;;34.22;;
31514;SDS011;40526;52.088;17.020;2023-11-21T03:34:52;114.60;;;35.38;;
31514;SDS011;40526;52.088;17.020;2023-11-21T03:39:58;108.68;;;33.33;;
31514;SDS011;40526;52.088;17.020;2023-11-21T03:45:00;110.20;;;34.30;;
31514;SDS011;40526;52.088;17.020;2023-11-21T03:50:03;96.80;;;30.75;;
31514;SDS011;40526;52.088;17.020;2023-11-21T03:55:09;101.35;;;31.48;;
31514;SDS011;40526;52.088;17.020;2023-11-21T04:00:17;127.20;;;37.20;;
31514;SDS011;40526;52.088;17.020;2023-11-21T04:05:21;120.47;;;34.60;;
31514;SDS011;40526;52.088;17.020;2023-11-21T04:10:26;98.30;;;32.80;;
31514;SDS011;40526;52.088;17.020;2023-11-21T04:15:28;96.28;;;31.48;;
31514;SDS011;40526;52.088;17.020;2023-11-21T04:20:31;101.20;;;31.35;;
31514;SDS011;40526;52.088;17.020;2023-11-21T04:25:36;109.90;;;33.90;;
31514;SDS011;40526;52.088;17.020;2023-11-21T04:30:38;120.50;;;35.42;;
31514;SDS011;40526;52.088;17.020;2023-11-21T04:35:41;147.07;;;40.63;;
31514;SDS011;40526;52.088;17.020;2023-11-21T04:40:45;121.10;;;35.33;;
31514;SDS011;40526;52.088;17.020;2023-11-21T04:45:47;109.50;;;33.85;;
31514;SDS011;40526;52.088;17.020;2023-11-21T04:50:50;110.65;;;33.38;;
31514;SDS011;40526;52.088;17.020;2023-11-21T04:55:54;125.90;;;36.17;;
31514;SDS011;40526;52.088;17.020;2023-11-21T05:00:57;109.75;;;33.22;;
31514;SDS011;40526;52.088;17.020;2023-11-21T05:05:59;85.50;;;28.40;;
31514;SDS011;40526;52.088;17.020;2023-11-21T05:11:04;85.78;;;28.42;;
31514;SDS011;40526;52.088;17.020;2023-11-21T05:16:07;102.68;;;33.53;;
31514;SDS011;40526;52.088;17.020;2023-11-21T05:21:11;89.03;;;31.75;;
31514;SDS011;40526;52.088;17.020;2023-11-21T05:26:15;73.75;;;27.13;;
31514;SDS011;40526;52.088;17.020;2023-11-21T05:31:19;86.68;;;27.95;;
31514;SDS011;40526;52.088;17.020;2023-11-21T05:36:22;93.43;;;30.35;;
31514;SDS011;40526;52.088;17.020;2023-11-21T05:41:26;101.30;;;33.67;;
31514;SDS011;40526;52.088;17.020;2023-11-21T05:46:28;77.70;;;33.00;;
31514;SDS011;40526;52.088;17.020;2023-11-21T05:51:30;93.32;;;32.05;;
31514;SDS011;40526;52.088;17.020;2023-11-21T05:56:36;63.97;;;25.08;;
31514;SDS011;40526;52.088;17.020;2023-11-21T06:01:39;80.78;;;30.17;;
31514;SDS011;40526;52.088;17.020;2023-11-21T06:06:43;87.68;;;32.38;;
31514;SDS011;40526;52.088;17.020;2023-11-21T06:11:47;113.15;;;38.13;;
31514;SDS011;40526;52.088;17.020;2023-11-21T06:16:49;87.55;;;32.72;;
31514;SDS011;40526;52.088;17.020;2023-11-21T06:21:52;99.07;;;34.03;;
31514;SDS011;40526;52.088;17.020;2023-11-21T06:26:57;148.50;;;53.25;;
31514;SDS011;40526;52.088;17.020;2023-11-21T06:31:59;98.60;;;42.38;;
31514;SDS011;40526;52.088;17.020;2023-11-21T06:37:05;73.90;;;26.17;;
31514;SDS011;40526;52.088;17.020;2023-11-21T06:42:09;73.28;;;28.73;;
31514;SDS011;40526;52.088;17.020;2023-11-21T06:47:12;83.82;;;31.75;;
31514;SDS011;40526;52.088;17.020;2023-11-21T06:52:14;45.13;;;19.42;;
31514;SDS011;40526;52.088;17.020;2023-11-21T06:57:18;41.22;;;17.92;;
31514;SDS011;40526;52.088;17.020;2023-11-21T07:02:21;42.50;;;19.48;;
31514;SDS011;40526;52.088;17.020;2023-11-21T07:07:23;39.55;;;19.10;;
31514;SDS011;40526;52.088;17.020;2023-11-21T07:12:27;47.65;;;19.48;;
31514;SDS011;40526;52.088;17.020;2023-11-21T07:17:30;50.83;;;23.00;;
31514;SDS011;40526;52.088;17.020;2023-11-21T07:22:32;42.22;;;21.88;;
31514;SDS011;40526;52.088;17.020;2023-11-21T07:27:36;40.28;;;19.95;;
31514;SDS011;40526;52.088;17.020;2023-11-21T07:32:39;35.20;;;18.75;;
31514;SDS011;40526;52.088;17.020;2023-11-21T07:37:41;36.05;;;17.70;;
31514;SDS011;40526;52.088;17.020;2023-11-21T07:42:45;36.67;;;18.30;;
31514;SDS011;40526;52.088;17.020;2023-11-21T07:47:49;36.10;;;17.52;;
31514;SDS011;40526;52.088;17.020;2023-11-21T07:52:51;45.40;;;18.70;;
31514;SDS011;40526;52.088;17.020;2023-11-21T07:57:56;37.45;;;17.70;;
31514;SDS011;40526;52.088;17.020;2023-11-21T08:02:58;43.33;;;21.75;;
31514;SDS011;40526;52.088;17.020;2023-11-21T08:08:00;49.13;;;23.42;;
31514;SDS011;40526;52.088;17.020;2023-11-21T08:13:04;66.47;;;28.88;;
31514;SDS011;40526;52.088;17.020;2023-11-21T08:18:09;40.60;;;19.38;;
31514;SDS011;40526;52.088;17.020;2023-11-21T08:23:11;45.75;;;23.38;;
31514;SDS011;40526;52.088;17.020;2023-11-21T08:28:17;58.20;;;22.23;;
31514;SDS011;40526;52.088;17.020;2023-11-21T08:33:19;47.55;;;22.10;;
31514;SDS011;40526;52.088;17.020;2023-11-21T08:38:21;39.42;;;21.15;;
31514;SDS011;40526;52.088;17.020;2023-11-21T08:43:25;52.90;;;24.30;;
31514;SDS011;40526;52.088;17.020;2023-11-21T08:48:28;46.20;;;22.30;;
31514;SDS011;40526;52.088;17.020;2023-11-21T08:53:31;45.72;;;21.00;;
31514;SDS011;40526;52.088;17.020;2023-11-21T08:58:35;45.42;;;22.67;;
31514;SDS011;40526;52.088;17.020;2023-11-21T09:03:38;46.20;;;22.35;;
31514;SDS011;40526;52.088;17.020;2023-11-21T09:08:40;49.53;;;22.33;;
31514;SDS011;40526;52.088;17.020;2023-11-21T09:13:45;47.03;;;23.15;;
31514;SDS011;40526;52.088;17.020;2023-11-21T09:18:48;48.40;;;24.27;;
31514;SDS011;40526;52.088;17.020;2023-11-21T09:23:50;57.95;;;26.83;;
31514;SDS011;40526;52.088;17.020;2023-11-21T09:28:55;68.18;;;29.52;;
31514;SDS011;40526;52.088;17.020;2023-11-21T09:33:57;70.10;;;28.88;;
31514;SDS011;40526;52.088;17.020;2023-11-21T09:39:00;64.22;;;28.67;;
31514;SDS011;40526;52.088;17.020;2023-11-21T09:44:07;64.65;;;27.00;;
31514;SDS011;40526;52.088;17.020;2023-11-21T09:49:11;62.78;;;28.40;;
31514;SDS011;40526;52.088;17.020;2023-11-21T09:54:15;65.30;;;27.88;;
31514;SDS011;40526;52.088;17.020;2023-11-21T09:59:21;45.97;;;21.17;;
31514;SDS011;40526;52.088;17.020;2023-11-21T10:04:24;49.92;;;22.38;;
31514;SDS011;40526;52.088;17.020;2023-11-21T10:09:27;43.15;;;20.52;;
31514;SDS011;40526;52.088;17.020;2023-11-21T10:14:31;42.17;;;19.88;;
31514;SDS011;40526;52.088;17.020;2023-11-21T10:19:34;59.75;;;25.20;;
31514;SDS011;40526;52.088;17.020;2023-11-21T10:24:37;51.22;;;23.70;;
31514;SDS011;40526;52.088;17.020;2023-11-21T10:29:41;62.60;;;28.92;;
31514;SDS011;40526;52.088;17.020;2023-11-21T10:34:55;53.20;;;26.17;;
31514;SDS011;40526;52.088;17.020;2023-11-21T10:39:57;54.40;;;23.17;;
31514;SDS011;40526;52.088;17.020;2023-11-21T10:45:01;65.72;;;27.60;;
31514;SDS011;40526;52.088;17.020;2023-11-21T10:50:10;60.70;;;29.52;;
31514;SDS011;40526;52.088;17.020;2023-11-21T10:55:16;55.38;;;23.52;;
31514;SDS011;40526;52.088;17.020;2023-11-21T11:00:20;72.47;;;33.55;;
31514;SDS011;40526;52.088;17.020;2023-11-21T11:05:24;56.63;;;28.20;;
31514;SDS011;40526;52.088;17.020;2023-11-21T11:10:29;55.28;;;24.92;;
31514;SDS011;40526;52.088;17.020;2023-11-21T11:15:32;62.13;;;25.55;;
31514;SDS011;40526;52.088;17.020;2023-11-21T11:20:36;42.42;;;21.88;;
31514;SDS011;40526;52.088;17.020;2023-11-21T11:25:46;54.83;;;26.23;;
31514;SDS011;40526;52.088;17.020;2023-11-21T11:30:56;55.08;;;28.25;;
31514;SDS011;40526;52.088;17.020;2023-11-21T11:36:05;56.72;;;26.95;;
31514;SDS011;40526;52.088;17.020;2023-11-21T11:41:12;53.15;;;25.52;;
31514;SDS011;40526;52.088;17.020;2023-11-21T11:46:16;50.30;;;24.17;;
31514;SDS011;40526;52.088;17.020;2023-11-21T11:51:18;58.97;;;27.40;;
31514;SDS011;40526;52.088;17.020;2023-11-21T11:56:21;39.92;;;20.20;;
31514;SDS011;40526;52.088;17.020;2023-11-21T12:01:27;52.78;;;22.85;;
31514;SDS011;40526;52.088;17.020;2023-11-21T12:06:33;42.75;;;20.77;;
31514;SDS011;40526;52.088;17.020;2023-11-21T12:11:36;45.67;;;21.95;;
31514;SDS011;40526;52.088;17.020;2023-11-21T12:16:40;65.40;;;30.15;;
31514;SDS011;40526;52.088;17.020;2023-11-21T12:21:43;63.30;;;31.20;;
31514;SDS011;40526;52.088;17.020;2023-11-21T12:26:45;59.38;;;27.88;;
31514;SDS011;40526;52.088;17.020;2023-11-21T12:31:50;63.53;;;29.38;;
31514;SDS011;40526;52.088;17.020;2023-11-21T12:36:52;71.70;;;33.25;;
31514;SDS011;40526;52.088;17.020;2023-11-21T12:41:55;104.47;;;43.75;;
31514;SDS011;40526;52.088;17.020;2023-11-21T12:47:00;63.25;;;26.25;;
31514;SDS011;40526;52.088;17.020;2023-11-21T12:52:02;56.53;;;24.73;;
31514;SDS011;40526;52.088;17.020;2023-11-21T12:57:05;64.93;;;28.67;;
31514;SDS011;40526;52.088;17.020;2023-11-21T13:02:10;48.67;;;23.75;;
31514;SDS011;40526;52.088;17.020;2023-11-21T13:07:15;57.53;;;25.23;;
31514;SDS011;40526;52.088;17.020;2023-11-21T13:12:23;55.67;;;25.90;;
31514;SDS011;40526;52.088;17.020;2023-11-21T13:17:28;57.45;;;27.25;;
31514;SDS011;40526;52.088;17.020;2023-11-21T13:22:30;47.30;;;21.73;;
31514;SDS011;40526;52.088;17.020;2023-11-21T13:27:33;77.80;;;29.92;;
31514;SDS011;40526;52.088;17.020;2023-11-21T13:32:38;57.05;;;25.45;;
31514;SDS011;40526;52.088;17.020;2023-11-21T13:37:40;70.82;;;32.22;;
31514;SDS011;40526;52.088;17.020;2023-11-21T13:42:45;78.18;;;33.42;;
31514;SDS011;40526;52.088;17.020;2023-11-21T13:47:50;50.88;;;25.15;;
31514;SDS011;40526;52.088;17.020;2023-11-21T13:52:55;52.50;;;29.60;;
31514;SDS011;40526;52.088;17.020;2023-11-21T13:57:58;55.72;;;27.45;;
31514;SDS011;40526;52.088;17.020;2023-11-21T14:03:02;50.33;;;24.13;;
31514;SDS011;40526;52.088;17.020;2023-11-21T14:08:08;62.03;;;30.02;;
31514;SDS011;40526;52.088;17.020;2023-11-21T14:13:12;62.75;;;29.73;;
31514;SDS011;40526;52.088;17.020;2023-11-21T14:18:18;73.60;;;32.85;;
31514;SDS011;40526;52.088;17.020;2023-11-21T14:23:30;66.78;;;31.33;;
31514;SDS011;40526;52.088;17.020;2023-11-21T14:28:36;68.03;;;30.40;;
31514;SDS011;40526;52.088;17.020;2023-11-21T14:33:40;63.42;;;28.17;;
31514;SDS011;40526;52.088;17.020;2023-11-21T14:38:42;61.08;;;28.63;;
31514;SDS011;40526;52.088;17.020;2023-11-21T14:43:45;50.83;;;25.15;;
31514;SDS011;40526;52.088;17.020;2023-11-21T14:48:51;44.75;;;22.58;;
31514;SDS011;40526;52.088;17.020;2023-11-21T14:54:13;60.70;;;26.90;;
31514;SDS011;40526;52.088;17.020;2023-11-21T14:59:24;55.83;;;27.33;;
31514;SDS011;40526;52.088;17.020;2023-11-21T15:04:28;57.53;;;26.80;;
31514;SDS011;40526;52.088;17.020;2023-11-21T15:09:37;65.50;;;30.45;;
31514;SDS011;40526;52.088;17.020;2023-11-21T15:14:43;69.15;;;30.58;;
31514;SDS011;40526;52.088;17.020;2023-11-21T15:19:49;69.47;;;29.10;;
31514;SDS011;40526;52.088;17.020;2023-11-21T15:24:52;122.55;;;52.30;;
31514;SDS011;40526;52.088;17.020;2023-11-21T15:29:54;140.88;;;55.92;;
31514;SDS011;40526;52.088;17.020;2023-11-21T15:34:59;68.90;;;34.40;;
31514;SDS011;40526;52.088;17.020;2023-11-21T15:40:01;61.35;;;29.00;;
31514;SDS011;40526;52.088;17.020;2023-11-21T15:45:06;64.43;;;29.30;;
31514;SDS011;40526;52.088;17.020;2023-11-21T15:50:11;73.63;;;32.38;;
31514;SDS011;40526;52.088;17.020;2023-11-21T15:55:15;60.10;;;27.90;;
31514;SDS011;40526;52.088;17.020;2023-11-21T16:00:17;52.00;;;24.42;;
31514;SDS011;40526;52.088;17.020;2023-11-21T16:05:23;45.03;;;22.00;;
31514;SDS011;40526;52.088;17.020;2023-11-21T16:10:26;67.07;;;28.27;;
31514;SDS011;40526;52.088;17.020;2023-11-21T16:15:28;61.17;;;28.27;;
31514;SDS011;40526;52.088;17.020;2023-11-21T16:20:32;73.85;;;32.05;;
31514;SDS011;40526;52.088;17.020;2023-11-21T16:25:35;61.97;;;28.85;;
31514;SDS011;40526;52.088;17.020;2023-11-21T16:30:37;67.35;;;29.58;;
31514;SDS011;40526;52.088;17.020;2023-11-21T16:35:41;63.60;;;29.15;;
31514;SDS011;40526;52.088;17.020;2023-11-21T16:40:43;70.25;;;31.10;;
31514;SDS011;40526;52.088;17.020;2023-11-21T16:45:46;49.13;;;22.95;;
31514;SDS011;40526;52.088;17.020;2023-11-21T16:50:53;45.88;;;22.05;;
31514;SDS011;40526;52.088;17.020;2023-11-21T16:55:56;51.65;;;24.30;;
31514;SDS011;40526;52.088;17.020;2023-11-21T17:01:00;59.30;;;30.27;;
31514;SDS011;40526;52.088;17.020;2023-11-21T17:06:05;55.28;;;26.85;;
31514;SDS011;40526;52.088;17.020;2023-11-21T17:11:09;53.22;;;25.95;;
31514;SDS011;40526;52.088;17.020;2023-11-21T17:16:14;65.93;;;27.15;;
31514;SDS011;40526;52.088;17.020;2023-11-21T17:21:18;58.25;;;28.67;;
31514;SDS011;40526;52.088;17.020;2023-11-21T17:26:20;71.53;;;31.52;;
31514;SDS011;40526;52.088;17.020;2023-11-21T17:31:23;76.38;;;32.90;;
31514;SDS011;40526;52.088;17.020;2023-11-21T17:36:27;46.58;;;23.70;;
31514;SDS011;40526;52.088;17.020;2023-11-21T17:41:29;55.63;;;28.23;;
31514;SDS011;40526;52.088;17.020;2023-11-21T17:46:32;43.67;;;23.92;;
31514;SDS011;40526;52.088;17.020;2023-11-21T17:51:39;42.92;;;24.92;;
31514;SDS011;40526;52.088;17.020;2023-11-21T17:56:42;47.10;;;25.00;;
31514;SDS011;40526;52.088;17.020;2023-11-21T18:01:45;44.38;;;20.92;;
31514;SDS011;40526;52.088;17.020;2023-11-21T18:06:49;44.88;;;22.50;;
31514;SDS011;40526;52.088;17.020;2023-11-21T18:11:52;39.67;;;22.02;;
31514;SDS011;40526;52.088;17.020;2023-11-21T18:16:54;40.95;;;21.92;;
31514;SDS011;40526;52.088;17.020;2023-11-21T18:21:58;50.22;;;25.45;;
31514;SDS011;40526;52.088;17.020;2023-11-21T18:27:01;41.75;;;20.33;;
31514;SDS011;40526;52.088;17.020;2023-11-21T18:32:05;45.60;;;20.80;;
31514;SDS011;40526;52.088;17.020;2023-11-21T18:37:11;47.55;;;23.40;;
31514;SDS011;40526;52.088;17.020;2023-11-21T18:42:14;39.33;;;20.02;;
31514;SDS011;40526;52.088;17.020;2023-11-21T18:47:17;41.28;;;18.08;;
31514;SDS011;40526;52.088;17.020;2023-11-21T18:52:22;40.47;;;21.98;;
31514;SDS011;40526;52.088;17.020;2023-11-21T18:57:27;42.97;;;18.40;;
31514;SDS011;40526;52.088;17.020;2023-11-21T19:02:31;38.97;;;19.77;;
31514;SDS011;40526;52.088;17.020;2023-11-21T19:07:35;54.90;;;19.95;;
31514;SDS011;40526;52.088;17.020;2023-11-21T19:12:37;38.75;;;18.80;;
31514;SDS011;40526;52.088;17.020;2023-11-21T19:17:40;37.95;;;18.33;;
31514;SDS011;40526;52.088;17.020;2023-11-21T19:22:44;35.70;;;16.73;;
31514;SDS011;40526;52.088;17.020;2023-11-21T19:27:47;29.92;;;15.32;;
31514;SDS011;40526;52.088;17.020;2023-11-21T19:32:50;41.75;;;16.83;;
31514;SDS011;40526;52.088;17.020;2023-11-21T19:37:55;30.33;;;14.55;;
31514;SDS011;40526;52.088;17.020;2023-11-21T19:42:58;27.05;;;14.90;;
31514;SDS011;40526;52.088;17.020;2023-11-21T19:48:00;29.92;;;14.40;;
31514;SDS011;40526;52.088;17.020;2023-11-21T19:53:06;27.50;;;14.07;;
31514;SDS011;40526;52.088;17.020;2023-11-21T19:58:09;23.05;;;13.23;;
31514;SDS011;40526;52.088;17.020;2023-11-21T20:03:14;22.58;;;11.05;;
31514;SDS011;40526;52.088;17.020;2023-11-21T20:08:19;21.23;;;11.43;;
31514;SDS011;40526;52.088;17.020;2023-11-21T20:13:22;17.40;;;9.60;;
31514;SDS011;40526;52.088;17.020;2023-11-21T20:18:24;23.35;;;11.88;;
31514;SDS011;40526;52.088;17.020;2023-11-21T20:23:28;23.77;;;13.13;;
31514;SDS011;40526;52.088;17.020;2023-11-21T20:28:32;22.20;;;11.55;;
31514;SDS011;40526;52.088;17.020;2023-11-21T20:33:34;24.05;;;11.43;;
31514;SDS011;40526;52.088;17.020;2023-11-21T20:38:39;20.85;;;12.20;;
31514;SDS011;40526;52.088;17.020;2023-11-21T20:43:41;23.70;;;11.40;;
31514;SDS011;40526;52.088;17.020;2023-11-21T20:48:43;19.10;;;10.77;;
31514;SDS011;40526;52.088;17.020;2023-11-21T20:53:48;19.42;;;9.63;;
31514;SDS011;40526;52.088;17.020;2023-11-21T20:58:50;19.23;;;11.32;;
31514;SDS011;40526;52.088;17.020;2023-11-21T21:03:53;15.50;;;10.25;;
31514;SDS011;40526;52.088;17.020;2023-11-21T21:08:56;16.20;;;9.50;;
31514;SDS011;40526;52.088;17.020;2023-11-21T21:13:59;20.48;;;11.75;;
31514;SDS011;40526;52.088;17.020;2023-11-21T21:19:02;15.95;;;9.65;;
31514;SDS011;40526;52.088;17.020;2023-11-21T21:24:06;21.80;;;12.38;;
31514;SDS011;40526;52.088;17.020;2023-11-21T21:29:09;21.58;;;10.60;;
31514;SDS011;40526;52.088;17.020;2023-11-21T21:34:11;20.13;;;10.95;;
31514;SDS011;40526;52.088;17.020;2023-11-21T21:39:16;18.83;;;10.95;;
31514;SDS011;40526;52.088;17.020;2023-11-21T21:44:19;15.82;;;9.55;;
31514;SDS011;40526;52.088;17.020;2023-11-21T21:49:22;18.98;;;10.85;;
31514;SDS011;40526;52.088;17.020;2023-11-21T21:54:26;16.00;;;9.57;;
31514;SDS011;40526;52.088;17.020;2023-11-21T21:59:29;19.65;;;9.80;;
31514;SDS011;40526;52.088;17.020;2023-11-21T22:04:31;18.85;;;10.52;;
31514;SDS011;40526;52.088;17.020;2023-11-21T22:09:36;20.45;;;9.85;;
31514;SDS011;40526;52.088;17.020;2023-11-21T22:14:39;19.60;;;10.85;;
31514;SDS011;40526;52.088;17.020;2023-11-21T22:19:41;18.77;;;9.93;;
31514;SDS011;40526;52.088;17.020;2023-11-21T22:24:45;18.67;;;10.60;;
31514;SDS011;40526;52.088;17.020;2023-11-21T22:29:48;19.60;;;10.65;;
31514;SDS011;40526;52.088;17.020;2023-11-21T22:34:51;18.70;;;9.77;;
31514;SDS011;40526;52.088;17.020;2023-11-21T22:39:54;16.55;;;9.88;;
31514;SDS011;40526;52.088;17.020;2023-11-21T22:44:57;16.73;;;9.77;;
31514;SDS011;40526;52.088;17.020;2023-11-21T22:49:59;16.73;;;10.07;;
31514;SDS011;40526;52.088;17.020;2023-11-21T22:55:03;20.52;;;10.50;;
31514;SDS011;40526;52.088;17.020;2023-11-21T23:00:06;19.15;;;11.18;;
31514;SDS011;40526;52.088;17.020;2023-11-21T23:05:12;22.73;;;9.95;;
31514;SDS011;40526;52.088;17.020;2023-11-21T23:10:16;21.75;;;11.35;;
31514;SDS011;40526;52.088;17.020;2023-11-21T23:15:18;16.38;;;10.48;;
31514;SDS011;40526;52.088;17.020;2023-11-21T23:20:21;20.23;;;10.75;;
31514;SDS011;40526;52.088;17.020;2023-11-21T23:25:25;19.48;;;10.27;;
31514;SDS011;40526;52.088;17.020;2023-11-21T23:30:27;13.82;;;9.02;;
31514;SDS011;40526;52.088;17.020;2023-11-21T23:35:30;21.85;;;10.10;;
31514;SDS011;40526;52.088;17.020;2023-11-21T23:40:34;20.40;;;9.55;;
31514;SDS011;40526;52.088;17.020;2023-11-21T23:45:37;17.10;;;9.43;;
31514;SDS011;40526;52.088;17.020;2023-11-21T23:50:39;24.10;;;10.05;;
31514;SDS011;40526;52.088;17.020;2023-11-21T23:55:44;16.75;;;8.07;;
